Time;durP1;ratioP1;P1;durP2;ratioP2;P2;SDS_P1;SDS_P2;PMS_P1;PMS_P2;Temp;Humidity;BMP_temperature;BMP_pressure;BME280_temperature;BME280_humidity;BME280_pressure;Samples;Min_cycle;Max_cycle;Signal;HPM_P1;HPM_P2
2022/12/05 00:00:14;;;;;;;45.53;28.37;;;;;;;0.90;100.00;101602.78;4986905;28;20034;-64
2022/12/05 00:02:39;;;;;;;45.07;29.30;;;;;;;0.89;100.00;101607.75;4986723;28;20054;-64
2022/12/05 00:05:05;;;;;;;46.57;29.40;;;;;;;0.90;100.00;101607.00;4975743;28;20082;-64
2022/12/05 00:07:30;;;;;;;51.27;30.73;;;;;;;0.90;100.00;101607.00;4985666;28;20277;-64
2022/12/05 00:09:55;;;;;;;47.07;28.23;;;;;;;0.91;100.00;101606.25;4987016;28;20026;-64
2022/12/05 00:12:21;;;;;;;48.27;29.17;;;;;;;0.91;100.00;101607.13;4986807;28;20027;-64
2022/12/05 00:14:46;;;;;;;46.80;28.97;;;;;;;0.91;100.00;101607.13;4986705;28;20062;-64
2022/12/05 00:17:11;;;;;;;48.83;30.83;;;;;;;0.92;100.00;101608.91;4986840;28;20026;-64
2022/12/05 00:19:38;;;;;;;45.40;30.40;;;;;;;0.94;100.00;101617.59;4986420;28;20022;-64
2022/12/05 00:22:03;;;;;;;44.50;28.33;;;;;;;0.93;100.00;101608.16;4986732;28;20455;-64
2022/12/05 00:24:28;;;;;;;45.87;29.33;;;;;;;0.95;100.00;101614.25;4987220;28;20034;-64
2022/12/05 00:26:54;;;;;;;41.43;29.00;;;;;;;0.98;100.00;101607.63;4990339;28;20037;-64
2022/12/05 00:29:19;;;;;;;50.10;31.20;;;;;;;0.97;100.00;101609.31;4991055;28;20034;-64
2022/12/05 00:31:44;;;;;;;48.13;29.83;;;;;;;0.96;100.00;101607.50;4977563;28;20065;-64
2022/12/05 00:34:10;;;;;;;49.00;30.30;;;;;;;0.97;100.00;101603.31;4989807;28;20026;-64
2022/12/05 00:36:36;;;;;;;48.83;31.70;;;;;;;0.96;100.00;101604.97;4990284;28;20026;-64
2022/12/05 00:39:05;;;;;;;46.43;30.97;;;;;;;0.97;100.00;101595.66;4989959;28;20440;-64
2022/12/05 00:41:31;;;;;;;46.33;29.93;;;;;;;0.95;100.00;101598.94;4978298;28;20045;-64
2022/12/05 00:43:59;;;;;;;46.37;30.00;;;;;;;0.97;100.00;101598.22;4989496;28;20030;-64
2022/12/05 00:46:27;;;;;;;50.40;29.97;;;;;;;0.98;100.00;101600.88;4990000;28;20046;-64
2022/12/05 00:48:53;;;;;;;47.33;30.77;;;;;;;0.97;100.00;101594.00;4990069;28;20061;-64
2022/12/05 00:51:27;;;;;;;48.97;30.57;;;;;;;1.00;100.00;101601.00;4990474;28;20026;-64
2022/12/05 00:53:54;;;;;;;48.40;31.20;;;;;;;1.01;100.00;101602.81;4990003;28;20032;-64
2022/12/05 00:56:22;;;;;;;46.53;29.83;;;;;;;1.01;100.00;101595.16;4990685;28;20034;-64
2022/12/05 00:58:49;;;;;;;46.63;30.70;;;;;;;1.01;100.00;101598.56;4989197;28;20104;-64
2022/12/05 01:01:21;;;;;;;49.90;31.63;;;;;;;1.03;100.00;101601.25;4990611;28;20034;-64
2022/12/05 01:03:47;;;;;;;47.53;30.13;;;;;;;1.02;100.00;101594.38;4989971;28;20386;-64
2022/12/05 01:06:14;;;;;;;46.87;29.80;;;;;;;1.01;100.00;101598.56;4990311;28;20026;-63
2022/12/05 01:08:40;;;;;;;45.17;30.20;;;;;;;1.02;100.00;101597.81;4990424;28;20060;-64
2022/12/05 01:11:07;;;;;;;47.00;32.10;;;;;;;1.04;100.00;101608.16;4990335;28;20030;-64
2022/12/05 01:13:33;;;;;;;49.37;32.10;;;;;;;1.04;100.00;101603.06;4989823;28;20105;-64
2022/12/05 01:15:59;;;;;;;47.53;30.47;;;;;;;1.03;100.00;101609.81;4989612;28;20034;-64
2022/12/05 01:18:25;;;;;;;45.90;28.93;;;;;;;1.05;100.00;101604.81;4989962;28;20492;-64
2022/12/05 01:20:51;;;;;;;45.87;30.10;;;;;;;1.07;100.00;101610.97;4983030;28;20118;-64
2022/12/05 01:23:16;;;;;;;49.60;31.53;;;;;;;1.06;100.00;101614.28;4982894;28;20040;-64
2022/12/05 01:25:44;;;;;;;49.07;31.83;;;;;;;1.06;100.00;101610.06;4983256;28;20026;-64
2022/12/05 01:28:10;;;;;;;49.13;30.20;;;;;;;1.07;100.00;101611.88;4984201;28;20040;-64
2022/12/05 01:30:40;;;;;;;43.80;30.30;;;;;;;1.08;100.00;101612.72;4989337;28;20032;-64
2022/12/05 01:33:06;;;;;;;47.23;31.30;;;;;;;1.10;100.00;101615.44;4989751;28;20505;-64
2022/12/05 01:35:32;;;;;;;51.33;34.00;;;;;;;1.10;100.00;101613.75;4990154;28;20265;-64
2022/12/05 01:37:58;;;;;;;50.07;30.60;;;;;;;1.10;100.00;101618.88;4974221;28;20053;-64
2022/12/05 01:40:24;;;;;;;49.80;31.20;;;;;;;1.08;100.00;101611.09;4989045;28;20031;-64
2022/12/05 01:42:49;;;;;;;45.30;31.13;;;;;;;1.11;100.00;101618.13;4988818;28;20674;-64
2022/12/05 01:45:21;;;;;;;46.80;32.07;;;;;;;1.11;100.00;101628.34;4989085;28;20451;-64
2022/12/05 01:47:47;;;;;;;46.10;30.30;;;;;;;1.13;100.00;101631.91;4983974;28;20502;-64
2022/12/05 01:50:12;;;;;;;48.20;29.77;;;;;;;1.13;100.00;101626.81;4987703;28;20034;-64
2022/12/05 01:52:38;;;;;;;43.77;30.40;;;;;;;1.13;100.00;101631.00;4988414;28;20038;-64
2022/12/05 01:55:10;;;;;;;45.40;30.43;;;;;;;1.14;100.00;101633.69;4988951;28;20026;-64
2022/12/05 01:57:36;;;;;;;46.57;30.60;;;;;;;1.14;100.00;101635.34;4988776;28;20030;-64
2022/12/05 02:00:10;;;;;;;47.30;30.43;;;;;;;1.14;100.00;101636.25;4988592;28;20046;-64
2022/12/05 02:02:35;;;;;;;43.67;31.50;;;;;;;1.15;100.00;101637.16;4988952;28;20107;-64
2022/12/05 02:05:06;;;;;;;47.90;31.33;;;;;;;1.15;100.00;101639.69;4986833;28;20414;-64
2022/12/05 02:07:32;;;;;;;47.28;30.58;;;;;;;1.17;100.00;101648.38;4988533;28;20520;-64
2022/12/05 02:09:58;;;;;;;47.00;31.37;;;;;;;1.17;100.00;101633.94;4988367;28;20490;-64
2022/12/05 02:12:24;;;;;;;46.17;31.13;;;;;;;1.16;100.00;101642.38;4988401;28;20029;-64
2022/12/05 02:14:55;;;;;;;48.43;31.27;;;;;;;1.16;100.00;101641.47;4985518;28;20034;-64
2022/12/05 02:17:38;;;;;;;46.50;29.53;;;;;;;1.17;100.00;101635.63;4979105;28;20038;-64
2022/12/05 02:20:31;;;;;;;48.33;30.90;;;;;;;1.17;100.00;101636.50;4986023;28;20482;-64
2022/12/05 02:23:17;;;;;;;47.60;29.77;;;;;;;1.19;100.00;101639.16;4988593;28;20026;-64
2022/12/05 02:26:11;;;;;;;52.03;30.10;;;;;;;1.21;100.00;101646.97;4988537;28;20042;-64
2022/12/05 02:28:51;;;;;;;45.87;29.40;;;;;;;1.19;100.00;101632.41;4986617;28;20030;-64
2022/12/05 02:31:42;;;;;;;43.40;30.10;;;;;;;1.20;100.00;101633.31;4988027;28;20030;-64
2022/12/05 02:34:35;;;;;;;43.35;30.73;;;;;;;1.22;100.00;101628.31;4987043;28;20038;-64
2022/12/05 02:37:19;;;;;;;48.87;30.13;;;;;;;1.22;100.00;101630.88;4988573;28;20096;-64
2022/12/05 02:39:55;;;;;;;46.70;30.50;;;;;;;1.22;100.00;101633.44;4988395;28;20037;-64
2022/12/05 02:42:27;;;;;;;46.37;29.93;;;;;;;1.23;100.00;101632.66;4974635;28;20113;-64
2022/12/05 02:44:58;;;;;;;44.13;29.37;;;;;;;1.23;100.00;101633.56;4976963;28;20403;-64
2022/12/05 02:47:29;;;;;;;44.13;29.05;;;;;;;1.23;100.00;101632.66;4986618;28;20033;-63
2022/12/05 02:49:56;;;;;;;47.22;30.88;;;;;;;1.23;100.00;101632.66;4988060;28;20038;-64
2022/12/05 02:52:23;;;;;;;49.47;31.37;;;;;;;1.23;100.00;101638.66;4987495;28;20034;-64
2022/12/05 02:54:52;;;;;;;49.00;29.67;;;;;;;1.23;100.00;101637.75;4987595;28;20399;-64
2022/12/05 02:57:19;;;;;;;48.33;30.87;;;;;;;1.23;100.00;101637.75;4987994;28;20018;-64
2022/12/05 02:59:45;;;;;;;47.83;30.93;;;;;;;1.24;100.00;101639.56;4987940;28;20033;-64
2022/12/05 03:02:27;;;;;;;47.17;30.20;;;;;;;1.24;100.00;101639.56;4988088;28;20026;-64
2022/12/05 03:04:56;;;;;;;51.20;30.63;;;;;;;1.25;100.00;101638.78;4987716;28;20045;-64
2022/12/05 03:07:24;;;;;;;48.03;29.80;;;;;;;1.25;100.00;101638.78;4987371;28;20084;-65
2022/12/05 03:09:59;;;;;;;52.00;31.57;;;;;;;1.25;100.00;101647.34;4987608;28;20053;-64
2022/12/05 03:12:28;;;;;;;47.37;30.40;;;;;;;1.26;100.00;101638.03;4987442;28;20042;-64
2022/12/05 03:14:55;;;;;;;50.07;31.43;;;;;;;1.26;100.00;101643.16;4988289;28;20523;-64
2022/12/05 03:17:30;;;;;;;51.00;31.10;;;;;;;1.26;100.00;101635.47;4974581;28;20465;-65
2022/12/05 03:20:03;;;;;;;46.37;30.67;;;;;;;1.26;100.00;101638.03;4986843;28;20034;-64
2022/12/05 03:22:35;;;;;;;49.47;32.07;;;;;;;1.27;100.00;101629.59;4974099;28;20030;-64
2022/12/05 03:25:02;;;;;;;48.43;31.40;;;;;;;1.28;100.00;101633.94;4987661;28;20361;-64
2022/12/05 03:28:00;;;;;;;51.80;31.60;;;;;;;1.27;100.00;101633.06;4987909;28;20030;-64
2022/12/05 03:30:26;;;;;;;51.90;31.80;;;;;;;1.28;100.00;101633.94;4954725;28;20391;-64
2022/12/05 03:32:58;;;;;;;50.70;32.60;;;;;;;1.28;100.00;101631.38;4983180;28;20072;-64
2022/12/05 03:35:51;;;;;;;50.77;31.70;;;;;;;1.29;100.00;101633.19;4987723;28;20056;-64
2022/12/05 03:38:38;;;;;;;47.13;31.00;;;;;;;1.28;100.00;101628.81;4974553;28;20042;-64
2022/12/05 03:41:13;;;;;;;51.77;32.13;;;;;;;1.29;100.00;101628.06;4987049;28;20382;-65
2022/12/05 03:43:56;;;;;;;48.13;31.27;;;;;;;1.29;100.00;101628.06;4987333;28;20448;-64
2022/12/05 03:46:33;;;;;;;46.47;29.23;;;;;;;1.29;100.00;101628.97;4987027;28;20061;-64
2022/12/05 03:49:16;;;;;;;48.80;30.70;;;;;;;1.29;100.00;101625.50;4986875;28;20041;-64
2022/12/05 03:51:52;;;;;;;50.23;32.43;;;;;;;1.31;100.00;101631.66;4987441;28;20037;-64
2022/12/05 03:54:22;;;;;;;50.13;32.83;;;;;;;1.30;100.00;101630.75;4986905;28;20014;-64
2022/12/05 03:57:10;;;;;;;53.30;31.90;;;;;;;1.29;100.00;101634.06;4987338;28;20065;-64
2022/12/05 03:59:48;;;;;;;49.07;31.53;;;;;;;1.30;100.00;101635.84;4987308;28;20030;-64
2022/12/05 04:02:20;;;;;;;50.67;30.20;;;;;;;1.31;100.00;101642.72;4991416;28;20117;-64
2022/12/05 04:04:52;;;;;;;51.13;31.57;;;;;;;1.30;100.00;101635.84;4990958;28;20034;-63
2022/12/05 04:07:20;;;;;;;48.27;31.30;;;;;;;1.30;100.00;101629.84;4990900;28;20042;-64
2022/12/05 04:09:54;;;;;;;50.47;31.40;;;;;;;1.30;100.00;101640.06;4991027;28;20026;-64
2022/12/05 04:12:27;;;;;;;44.70;29.53;;;;;;;1.31;100.00;101637.63;4990499;28;20034;-64
2022/12/05 04:14:57;;;;;;;51.20;30.90;;;;;;;1.30;100.00;101640.06;4990886;28;20092;-64
2022/12/05 04:17:46;;;;;;;47.83;31.20;;;;;;;1.31;100.00;101639.31;4990421;28;20398;-64
2022/12/05 04:23:00;;;;;;;44.63;29.87;;;;;;;1.33;100.00;101645.44;4990266;28;20059;-64
2022/12/05 04:25:32;;;;;;;49.03;31.47;;;;;;;1.33;100.00;101645.44;4990410;28;20030;-64
2022/12/05 04:28:24;;;;;;;48.40;32.23;;;;;;;1.33;100.00;101645.44;4990879;28;20438;-64
2022/12/05 04:30:49;;;;;;;;;;;;;;;1.34;100.00;101646.31;4991070;28;20065;-64
2022/12/05 04:33:40;;;;;;;44.80;28.97;;;;;;;1.34;100.00;101646.31;4991061;28;19972;-63
2022/12/05 04:36:12;;;;;;;45.58;31.20;;;;;;;1.35;100.00;101655.78;4989570;28;20030;-64
2022/12/05 04:39:01;;;;;;;49.03;30.63;;;;;;;1.34;100.00;101647.22;4990748;28;20026;-64
2022/12/05 04:41:33;;;;;;;46.77;29.40;;;;;;;1.34;100.00;101649.78;4967425;28;20097;-64
2022/12/05 04:44:04;;;;;;;44.23;29.40;;;;;;;1.36;100.00;101653.34;4984547;28;20027;-64
2022/12/05 04:46:30;;;;;;;44.87;30.00;;;;;;;1.37;100.00;101657.69;4989523;28;20137;-64
2022/12/05 04:48:59;;;;;;;45.73;30.83;;;;;;;1.38;100.00;101663.69;4990126;28;20419;-64
2022/12/05 04:51:30;;;;;;;47.23;30.23;;;;;;;1.38;100.00;101653.47;4990475;28;20033;-64
2022/12/05 04:54:00;;;;;;;43.80;27.38;;;;;;;1.38;100.00;101649.28;4990130;28;20026;-64
2022/12/05 04:56:30;;;;;;;52.50;31.27;;;;;;;1.40;100.00;101651.94;4989731;28;20049;-64
2022/12/05 04:58:55;;;;;;;46.03;29.27;;;;;;;1.40;100.00;101651.94;4990710;28;20276;-64
2022/12/05 05:01:27;;;;;;;47.53;30.53;;;;;;;1.40;100.00;101647.69;4990250;28;20054;-64
2022/12/05 05:04:13;;;;;;;44.78;30.70;;;;;;;1.42;100.00;101650.41;4990319;28;20202;-64
2022/12/05 05:06:39;;;;;;;47.87;29.90;;;;;;;1.42;100.00;101646.19;4989918;28;20058;-64
2022/12/05 05:09:06;;;;;;;48.67;30.50;;;;;;;1.42;100.00;101646.19;4989669;28;20048;-64
2022/12/05 05:11:33;;;;;;;46.53;30.77;;;;;;;1.43;100.00;101655.66;4988738;28;20026;-64
2022/12/05 05:13:59;;;;;;;51.33;32.40;;;;;;;1.43;100.00;101663.31;4988964;28;20058;-64
2022/12/05 05:16:28;;;;;;;50.13;31.67;;;;;;;1.43;100.00;101658.19;4989598;28;20023;-64
2022/12/05 05:18:54;;;;;;;51.67;32.27;;;;;;;1.43;100.00;101663.31;4989444;28;20508;-64
2022/12/05 05:21:26;;;;;;;49.90;32.13;;;;;;;1.43;100.00;101667.50;4989854;28;20026;-64
2022/12/05 05:23:52;;;;;;;50.97;31.23;;;;;;;1.43;100.00;101668.41;4989147;28;20435;-64
2022/12/05 05:26:18;;;;;;;46.70;30.30;;;;;;;1.44;100.00;101659.06;4989138;28;20034;-63
2022/12/05 05:28:45;;;;;;;49.20;31.60;;;;;;;1.46;100.00;101666.88;4988844;28;20073;-64
2022/12/05 05:31:10;;;;;;;50.47;30.93;;;;;;;1.46;100.00;101666.88;4989207;28;20062;-64
2022/12/05 05:33:36;;;;;;;45.63;30.33;;;;;;;1.46;100.00;101661.78;4988932;28;20054;-64
2022/12/05 05:36:06;;;;;;;49.27;30.67;;;;;;;1.48;100.00;101660.22;4988148;28;20089;-64
2022/12/05 05:38:38;;;;;;;47.30;30.40;;;;;;;1.46;100.00;101657.53;4989153;28;20389;-64
2022/12/05 05:41:04;;;;;;;49.83;30.10;;;;;;;1.48;100.00;101662.78;4988640;28;20034;-64
2022/12/05 05:43:29;;;;;;;53.20;32.03;;;;;;;1.48;100.00;101665.31;4989169;28;20035;-64
2022/12/05 05:45:55;;;;;;;46.73;29.87;;;;;;;1.49;100.00;101664.59;4988842;28;20058;-64
2022/12/05 05:48:20;;;;;;;46.47;29.83;;;;;;;1.50;100.00;101668.91;4989362;28;20430;-63
2022/12/05 05:50:45;;;;;;;48.47;30.77;;;;;;;1.51;100.00;101670.72;4988951;28;20402;-64
2022/12/05 05:53:11;;;;;;;45.73;29.63;;;;;;;1.50;100.00;101668.91;4988738;28;20109;-64
2022/12/05 05:55:40;;;;;;;45.13;29.20;;;;;;;1.51;100.00;101670.72;4988003;28;20022;-63
2022/12/05 05:58:06;;;;;;;49.20;30.37;;;;;;;1.52;100.00;101675.03;4989180;28;20109;-64
2022/12/05 06:00:31;;;;;;;45.77;28.47;;;;;;;1.52;100.00;101670.84;4989293;28;20117;-64
2022/12/05 06:02:56;;;;;;;44.23;29.07;;;;;;;1.53;100.00;101671.75;4987813;28;20357;-64
2022/12/05 06:05:21;;;;;;;46.40;27.97;;;;;;;1.52;100.00;101664.81;4989234;28;20038;-63
2022/12/05 06:07:47;;;;;;;45.27;29.20;;;;;;;1.54;100.00;101676.06;4989120;28;20309;-64
2022/12/05 06:10:12;;;;;;;48.20;29.47;;;;;;;1.54;100.00;101676.06;4987566;28;20034;-64
2022/12/05 06:12:37;;;;;;;41.77;28.53;;;;;;;1.54;100.00;101678.63;4987668;28;20022;-64
2022/12/05 06:15:03;;;;;;;48.37;29.53;;;;;;;1.55;100.00;101678.75;4988564;28;20076;-63
2022/12/05 06:17:29;;;;;;;45.20;29.83;;;;;;;1.54;100.00;101676.06;4976245;28;20360;-64
2022/12/05 06:19:54;;;;;;;43.43;29.07;;;;;;;1.55;100.00;101670.19;4988428;28;20323;-64
2022/12/05 06:22:20;;;;;;;44.63;29.43;;;;;;;1.56;100.00;101679.66;4987499;28;20026;-64
2022/12/05 06:24:45;;;;;;;44.97;27.47;;;;;;;1.57;100.00;101683.97;4978444;28;20376;-64
2022/12/05 06:27:10;;;;;;;46.93;28.17;;;;;;;1.57;100.00;101686.53;4985336;28;20122;-64
2022/12/05 06:29:35;;;;;;;45.73;27.63;;;;;;;1.58;100.00;101682.31;4987617;28;20052;-64
2022/12/05 06:32:01;;;;;;;42.70;28.13;;;;;;;1.58;100.00;101688.34;4987990;28;20026;-64
2022/12/05 06:34:26;;;;;;;45.57;28.60;;;;;;;1.60;100.00;101686.78;4987573;28;20026;-64
2022/12/05 06:36:51;;;;;;;45.23;28.17;;;;;;;1.61;100.00;101688.59;4987875;28;20034;-64
2022/12/05 06:39:17;;;;;;;41.93;28.23;;;;;;;1.61;100.00;101688.59;4986451;28;20470;-64
2022/12/05 06:41:42;;;;;;;42.33;27.33;;;;;;;1.62;100.00;101692.03;4988254;28;20022;-64
2022/12/05 06:44:08;;;;;;;44.00;26.80;;;;;;;1.62;100.00;101690.34;4987423;28;20038;-64
2022/12/05 06:46:33;;;;;;;41.10;28.20;;;;;;;1.63;100.00;101683.59;4987363;28;20089;-64
2022/12/05 06:48:59;;;;;;;43.53;27.20;;;;;;;1.62;100.00;101682.69;4987268;28;20034;-64
2022/12/05 06:51:24;;;;;;;41.47;27.67;;;;;;;1.63;100.00;101687.06;4986962;28;20033;-64
2022/12/05 06:53:50;;;;;;;42.13;27.83;;;;;;;1.63;100.00;101683.59;4988171;28;20026;-64
2022/12/05 06:56:18;;;;;;;40.20;26.73;;;;;;;1.64;100.00;101693.94;4987382;28;20076;-64
2022/12/05 06:58:45;;;;;;;38.63;25.53;;;;;;;1.64;100.00;101690.47;4977770;28;20026;-64
2022/12/05 07:01:37;;;;;;;42.97;27.83;;;;;;;1.63;100.00;101694.72;4986996;28;20041;-64
2022/12/05 07:04:07;;;;;;;39.33;25.93;;;;;;;1.64;100.00;101698.16;4981474;28;20041;-64
2022/12/05 07:06:34;;;;;;;39.80;27.10;;;;;;;1.64;100.00;101699.06;4988422;28;20030;-64
2022/12/05 07:08:59;;;;;;;39.20;26.17;;;;;;;1.64;100.00;101704.16;4987964;28;20026;-64
2022/12/05 07:11:25;;;;;;;38.13;26.23;;;;;;;1.65;100.00;101703.41;4987292;28;20057;-64
2022/12/05 07:13:50;;;;;;;38.53;26.53;;;;;;;1.66;100.00;101710.28;4987113;28;20307;-64
2022/12/05 07:16:16;;;;;;;37.80;26.30;;;;;;;1.66;100.00;101711.94;4987891;28;20101;-64
2022/12/05 07:18:41;;;;;;;37.43;25.83;;;;;;;1.65;100.00;101711.06;4987677;28;20265;-64
2022/12/05 07:21:10;;;;;;;38.37;26.43;;;;;;;1.66;100.00;101712.84;4988045;28;20027;-64
2022/12/05 07:23:36;;;;;;;37.73;25.83;;;;;;;1.67;100.00;101718.88;4987013;28;20057;-64
2022/12/05 07:26:06;;;;;;;37.03;26.33;;;;;;;1.67;100.00;101724.84;4986401;28;20146;-64
2022/12/05 07:28:31;;;;;;;41.03;27.27;;;;;;;1.68;100.00;101726.66;4985131;28;20038;-64
2022/12/05 07:31:04;;;;;;;40.53;26.57;;;;;;;1.68;100.00;101731.78;4987213;28;20046;-64
2022/12/05 07:33:30;;;;;;;39.53;25.60;;;;;;;1.69;100.00;101730.13;4985004;28;20022;-64
2022/12/05 07:36:00;;;;;;;38.70;25.33;;;;;;;1.71;100.00;101730.25;4990063;28;20050;-64
2022/12/05 07:38:26;;;;;;;36.40;24.37;;;;;;;1.70;100.00;101733.53;4980623;28;20054;-64
2022/12/05 07:40:51;;;;;;;34.93;24.47;;;;;;;1.70;100.00;101729.34;4989379;28;20030;-64
2022/12/05 07:43:16;;;;;;;35.27;25.77;;;;;;;1.71;100.00;101725.13;4981650;28;20242;-64
2022/12/05 07:45:42;;;;;;;37.03;26.43;;;;;;;1.71;100.00;101732.78;4980964;28;20569;-64
2022/12/05 07:48:07;;;;;;;37.37;25.40;;;;;;;1.72;100.00;101735.47;4988602;28;20018;-64
2022/12/05 07:50:39;;;;;;;37.90;26.53;;;;;;;1.70;100.00;101733.53;4989960;28;20022;-64
2022/12/05 07:53:10;;;;;;;37.77;25.63;;;;;;;1.70;100.00;101736.09;4984050;28;20018;-64
2022/12/05 07:55:36;;;;;;;36.90;24.90;;;;;;;1.71;100.00;101732.78;4986911;28;20026;-64
2022/12/05 07:58:02;;;;;;;38.77;26.07;;;;;;;1.72;100.00;101745.69;4976020;28;20036;-64
2022/12/05 08:00:27;;;;;;;35.30;24.77;;;;;;;1.72;100.00;101740.59;4987906;28;20266;-64
2022/12/05 08:02:52;;;;;;;38.27;25.63;;;;;;;1.73;100.00;101744.00;4983606;28;20022;-64
2022/12/05 08:05:17;;;;;;;37.50;26.17;;;;;;;1.73;100.00;101744.91;4988060;28;20479;-64
2022/12/05 08:07:43;;;;;;;35.87;24.33;;;;;;;1.72;100.00;101743.13;4984482;28;20089;-64
2022/12/05 08:10:08;;;;;;;38.07;25.07;;;;;;;1.73;100.00;101750.03;4988813;28;20026;-64
2022/12/05 08:12:34;;;;;;;39.17;26.23;;;;;;;1.75;100.00;101752.69;4987431;28;20084;-64
2022/12/05 08:14:59;;;;;;;41.03;27.20;;;;;;;1.73;100.00;101750.03;4986173;28;20374;-64
2022/12/05 08:17:25;;;;;;;36.47;26.03;;;;;;;1.74;100.00;101756.03;4987894;28;20077;-64
2022/12/05 08:19:51;;;;;;;36.70;24.50;;;;;;;1.74;100.00;101756.94;4989443;28;20034;-64
2022/12/05 08:22:16;;;;;;;38.30;25.70;;;;;;;1.76;100.00;101765.59;4987644;28;20033;-64
2022/12/05 08:24:42;;;;;;;39.73;26.07;;;;;;;1.76;100.00;101764.75;4985345;28;20399;-64
2022/12/05 08:27:07;;;;;;;38.67;25.20;;;;;;;1.75;100.00;101762.94;4989853;28;20037;-64
2022/12/05 08:29:32;;;;;;;37.77;25.87;;;;;;;1.75;100.00;101768.03;4990603;28;20369;-64
2022/12/05 08:31:58;;;;;;;37.43;25.73;;;;;;;1.77;100.00;101771.63;4989905;28;20033;-64
2022/12/05 08:34:23;;;;;;;35.90;24.40;;;;;;;1.78;100.00;101774.31;4990014;28;20088;-64
2022/12/05 08:36:49;;;;;;;36.87;25.30;;;;;;;1.79;100.00;101775.22;4989954;28;20565;-63
2022/12/05 08:39:16;;;;;;;37.63;24.53;;;;;;;1.80;100.00;101779.53;4989909;28;20109;-64
2022/12/05 08:41:45;;;;;;;39.17;24.50;;;;;;;1.82;100.00;101780.56;4989062;28;20066;-64
2022/12/05 08:44:15;;;;;;;38.07;25.23;;;;;;;1.80;100.00;101777.88;4988581;28;20105;-64
2022/12/05 08:46:41;;;;;;;39.13;26.17;;;;;;;1.79;100.00;101778.66;4987626;28;20054;-64
2022/12/05 08:49:07;;;;;;;35.63;23.67;;;;;;;1.80;100.00;101776.97;4989526;28;20034;-64
2022/12/05 08:51:32;;;;;;;41.90;26.10;;;;;;;1.81;100.00;101776.22;4989450;28;20031;-64
2022/12/05 08:53:58;;;;;;;39.03;26.53;;;;;;;1.80;100.00;101772.78;4988017;28;20034;-64
2022/12/05 08:56:23;;;;;;;39.27;26.10;;;;;;;1.83;100.00;101786.59;4989663;28;20033;-64
2022/12/05 08:58:49;;;;;;;36.70;24.63;;;;;;;1.83;100.00;101776.34;4983327;28;20034;-64
2022/12/05 09:01:18;;;;;;;37.27;25.33;;;;;;;1.84;100.00;101784.16;4989182;28;20122;-64
2022/12/05 09:03:43;;;;;;;34.30;24.87;;;;;;;1.86;100.00;101786.81;4988253;28;20034;-64
2022/12/05 09:06:14;;;;;;;35.53;23.93;;;;;;;1.85;100.00;101783.41;4990364;28;20093;-64
2022/12/05 09:08:41;;;;;;;38.08;24.25;;;;;;;1.86;100.00;101781.72;4987912;28;20373;-64
2022/12/05 09:11:10;;;;;;;36.97;24.10;;;;;;;1.87;100.00;101796.31;4984250;28;20022;-64
2022/12/05 09:13:35;;;;;;;41.30;25.60;;;;;;;1.88;100.00;101791.31;4988240;28;20030;-64
2022/12/05 09:16:08;;;;;;;41.40;26.27;;;;;;;1.89;100.00;101795.66;4984762;28;20026;-64
2022/12/05 09:18:33;;;;;;;40.20;25.47;;;;;;;1.89;100.00;101795.66;4988848;28;20038;-64
2022/12/05 09:21:08;;;;;;;38.87;24.33;;;;;;;1.91;100.00;101806.00;4989002;28;20022;-64
2022/12/05 09:23:35;;;;;;;35.10;23.53;;;;;;;1.91;100.00;101806.91;4988900;28;20073;-64
2022/12/05 09:26:00;;;;;;;35.70;23.67;;;;;;;1.91;100.00;101804.34;4989109;28;20121;-64
2022/12/05 09:28:26;;;;;;;37.70;25.97;;;;;;;1.92;100.00;101803.56;4989573;28;20550;-64
2022/12/05 09:31:06;;;;;;;34.87;23.70;;;;;;;1.94;100.00;101813.03;4988668;28;20116;-64
2022/12/05 09:33:34;;;;;;;38.87;25.43;;;;;;;1.94;100.00;101811.38;4989205;28;20061;-64
2022/12/05 09:36:14;;;;;;;36.63;24.50;;;;;;;1.95;100.00;101810.59;4988808;28;20026;-64
2022/12/05 09:38:39;;;;;;;37.83;25.20;;;;;;;1.96;100.00;101819.19;4989845;28;20026;-64
2022/12/05 09:42:03;;;;;;;36.17;24.40;;;;;;;1.95;100.00;101812.25;4986709;28;20623;-64
2022/12/05 09:44:27;;;;;;;34.17;23.30;;;;;;;1.95;100.00;101822.47;4988046;28;20046;-64
2022/12/05 09:47:06;;;;;;;30.73;22.43;;;;;;;1.95;100.00;101823.38;4987712;28;20486;-64
2022/12/05 09:49:33;;;;;;;30.87;22.30;;;;;;;1.96;100.00;101824.28;4983796;28;20030;-63
2022/12/05 09:51:59;;;;;;;30.03;22.23;;;;;;;1.96;100.00;101820.06;4986179;28;20084;-64
2022/12/05 09:54:26;;;;;;;32.17;23.67;;;;;;;1.95;100.00;101822.47;4988297;28;20331;-64
2022/12/05 09:56:52;;;;;;;30.97;20.67;;;;;;;1.96;100.00;101819.19;4987050;28;20035;-64
2022/12/05 09:59:19;;;;;;;33.07;21.53;;;;;;;1.97;100.00;101823.50;4987295;28;20471;-64
2022/12/05 10:01:53;;;;;;;32.17;21.27;;;;;;;1.97;100.00;101820.97;4988202;28;20030;-64
2022/12/05 10:04:29;;;;;;;32.00;22.13;;;;;;;1.99;100.00;101824.53;4984108;28;20034;-64
2022/12/05 10:07:19;;;;;;;27.30;20.57;;;;;;;1.99;100.00;101825.44;4973439;28;20042;-64
2022/12/05 10:10:18;;;;;;;27.50;18.85;;;;;;;2.00;100.00;101823.75;4986451;28;20395;-64
2022/12/05 10:13:02;;;;;;;28.10;18.97;;;;;;;1.99;100.00;101820.31;4973028;28;20026;-63
2022/12/05 10:15:36;;;;;;;28.20;20.60;;;;;;;2.00;100.00;101821.19;4986817;28;20023;-63
2022/12/05 10:18:03;;;;;;;25.07;18.40;;;;;;;2.01;100.00;101828.13;4987155;28;20034;-64
2022/12/05 10:21:11;;;;;;;24.20;18.27;;;;;;;2.02;100.00;101822.22;4987497;28;20092;-64
2022/12/05 10:23:58;;;;;;;28.00;19.07;;;;;;;2.03;100.00;101821.47;4986245;28;20132;-64
2022/12/05 10:26:27;;;;;;;26.40;19.67;;;;;;;2.04;100.00;101820.69;4986890;28;20038;-64
2022/12/05 10:29:05;;;;;;;26.57;19.23;;;;;;;2.04;100.00;101823.25;4987440;28;20037;-64
2022/12/05 10:31:35;;;;;;;22.97;18.30;;;;;;;2.05;100.00;101822.50;4986231;28;20120;-64
2022/12/05 10:34:23;;;;;;;23.93;18.07;;;;;;;2.05;100.00;101827.63;4987742;28;20077;-64
2022/12/05 10:37:15;;;;;;;23.87;17.70;;;;;;;2.06;100.00;101826.84;4984724;28;20050;-64
2022/12/05 10:39:41;;;;;;;24.63;18.33;;;;;;;2.07;100.00;101826.06;4986968;28;20030;-64
2022/12/05 10:42:13;;;;;;;26.73;19.50;;;;;;;2.08;100.00;101832.06;4987034;28;20382;-64
2022/12/05 10:44:39;;;;;;;24.87;18.23;;;;;;;2.06;100.00;101819.16;4987823;28;20510;-64
2022/12/05 10:47:05;;;;;;;24.00;18.07;;;;;;;2.07;100.00;101823.50;4987301;28;20038;-64
2022/12/05 10:49:33;;;;;;;21.40;17.83;;;;;;;2.09;100.00;101821.06;4986308;28;20101;-64
2022/12/05 10:51:59;;;;;;;26.53;19.57;;;;;;;2.10;100.00;101821.22;4986974;28;20062;-64
2022/12/05 10:54:29;;;;;;;23.53;17.70;;;;;;;2.10;100.00;101828.88;4985842;28;20022;-64
2022/12/05 10:56:54;;;;;;;23.40;17.90;;;;;;;2.11;100.00;101830.66;4986920;28;20038;-64
2022/12/05 10:59:23;;;;;;;21.77;16.90;;;;;;;2.12;100.00;101831.56;4987608;28;20049;-64
2022/12/05 11:01:52;;;;;;;23.37;16.70;;;;;;;2.11;100.00;101824.66;4987795;28;20061;-64
2022/12/05 11:04:26;;;;;;;22.50;17.10;;;;;;;2.12;100.00;101831.56;4986911;28;20031;-64
2022/12/05 11:06:54;;;;;;;19.13;15.93;;;;;;;2.12;100.00;101817.09;4986782;28;20030;-64
2022/12/05 11:09:22;;;;;;;20.97;15.20;;;;;;;2.14;100.00;101825.78;4982641;28;20084;-64
2022/12/05 11:12:05;;;;;;;20.73;15.10;;;;;;;2.14;100.00;101819.81;4987189;28;20038;-64
2022/12/05 11:14:33;;;;;;;20.33;15.97;;;;;;;2.14;100.00;101818.13;4985662;28;20026;-63
2022/12/05 11:17:00;;;;;;;16.93;14.33;;;;;;;2.13;100.00;101812.88;4986630;28;20033;-64
2022/12/05 11:19:29;;;;;;;19.87;14.70;;;;;;;2.15;100.00;101817.38;5000031;28;20041;-64
2022/12/05 11:21:55;;;;;;;18.13;14.70;;;;;;;2.16;100.00;101816.59;4986140;28;20261;-64
2022/12/05 11:24:34;;;;;;;17.33;13.70;;;;;;;2.17;100.00;101814.94;4987396;28;20451;-64